createdAt,value
2022-11-04T00:01:35.737Z,23.55
2022-11-04T00:04:47.812Z,22.70
2022-11-04T00:08:14.363Z,21.10
2022-11-04T00:11:53.218Z,21.77
2022-11-04T00:15:07.531Z,21.38
2022-11-04T00:18:19.763Z,21.85
2022-11-04T00:21:46.286Z,20.85
2022-11-04T00:25:12.932Z,19.43
2022-11-04T00:28:40.556Z,21.90
2022-11-04T00:32:04.435Z,19.20
2022-11-04T00:35:18.649Z,19.98
2022-11-04T00:38:31.937Z,20.98
2022-11-04T00:41:44.182Z,21.35
2022-11-04T00:44:56.516Z,20.52
2022-11-04T00:48:09.267Z,20.95
2022-11-04T00:51:22.405Z,22.00
2022-11-04T00:54:34.626Z,22.73
2022-11-04T00:57:46.732Z,21.43
2022-11-04T01:00:59.226Z,23.50
2022-11-04T01:04:11.889Z,20.90
2022-11-04T01:07:24.154Z,22.20
2022-11-04T01:10:36.358Z,20.20
2022-11-04T01:13:48.867Z,21.28
2022-11-04T01:17:01.100Z,20.83
2022-11-04T01:20:15.441Z,19.10
2022-11-04T01:23:27.801Z,20.40
2022-11-04T01:26:40.054Z,18.50
2022-11-04T01:29:52.256Z,18.68
2022-11-04T01:33:04.672Z,18.73
2022-11-04T01:36:18.308Z,17.88
2022-11-04T01:39:30.721Z,19.53
2022-11-04T01:42:42.848Z,17.18
2022-11-04T01:45:58.695Z,17.05
2022-11-04T01:49:30.309Z,17.10
2022-11-04T01:52:48.095Z,16.83
2022-11-04T01:56:05.100Z,17.88
2022-11-04T02:02:31.615Z,16.28
2022-11-04T02:05:44.988Z,16.80
2022-11-04T02:08:57.477Z,16.63
2022-11-04T02:12:25.424Z,18.38
2022-11-04T02:15:46.290Z,17.43
2022-11-04T02:19:05.923Z,17.53
2022-11-04T02:22:50.361Z,16.00
2022-11-04T02:26:46.528Z,15.93
2022-11-04T02:30:15.922Z,16.13
2022-11-04T02:33:33.165Z,15.78
2022-11-04T02:36:52.908Z,16.05
2022-11-04T02:40:13.352Z,17.23
2022-11-04T02:43:31.759Z,16.48
2022-11-04T02:46:49.686Z,16.45
2022-11-04T02:50:05.910Z,16.43
2022-11-04T02:53:23.717Z,17.83
2022-11-04T02:56:39.201Z,17.00
2022-11-04T02:59:57.174Z,16.73
2022-11-04T03:03:13.933Z,17.28
2022-11-04T03:06:29.844Z,17.23
2022-11-04T03:09:46.108Z,17.37
2022-11-04T03:13:03.514Z,17.23
2022-11-04T03:16:20.924Z,15.63
2022-11-04T03:19:38.863Z,16.55
2022-11-04T03:22:53.225Z,16.43
2022-11-04T03:26:14.311Z,16.55
2022-11-04T03:29:33.856Z,16.30
2022-11-04T03:32:51.441Z,15.33
2022-11-04T03:36:04.538Z,15.63
2022-11-04T03:39:16.800Z,14.55
2022-11-04T03:42:29.790Z,15.53
2022-11-04T03:45:42.247Z,16.48
2022-11-04T03:48:58.459Z,15.38
2022-11-04T03:52:10.975Z,15.50
2022-11-04T03:55:23.603Z,15.30
2022-11-04T03:58:43.888Z,16.13
2022-11-04T04:02:00.861Z,14.65
2022-11-04T04:05:19.063Z,14.85
2022-11-04T04:08:38.420Z,14.20
2022-11-04T04:11:57.059Z,14.58
2022-11-04T04:15:15.810Z,14.18
2022-11-04T04:18:35.604Z,14.13
2022-11-04T04:21:52.754Z,15.18
2022-11-04T04:25:22.462Z,14.20
2022-11-04T04:28:34.636Z,14.48
2022-11-04T04:31:55.770Z,14.05
2022-11-04T04:35:22.505Z,15.48
2022-11-04T04:38:57.860Z,14.63
2022-11-04T04:42:25.000Z,14.78
2022-11-04T04:45:41.420Z,13.90
2022-11-04T04:48:53.491Z,14.08
2022-11-04T04:52:05.664Z,13.83
2022-11-04T04:55:19.364Z,15.30
2022-11-04T04:58:31.423Z,16.43
2022-11-04T05:01:43.458Z,15.08
2022-11-04T05:04:56.363Z,14.10
2022-11-04T05:08:14.099Z,14.00
2022-11-04T05:11:27.246Z,13.18
2022-11-04T05:14:39.834Z,13.58
2022-11-04T05:17:52.048Z,13.43
2022-11-04T05:21:06.537Z,15.38
2022-11-04T05:24:19.504Z,14.43
2022-11-04T05:27:31.699Z,13.95
2022-11-04T05:30:44.823Z,14.75
2022-11-04T05:33:58.199Z,14.45
2022-11-04T05:37:10.427Z,14.80
2022-11-04T05:40:23.061Z,13.85
2022-11-04T05:43:35.310Z,14.28
2022-11-04T05:46:47.555Z,13.48
2022-11-04T05:49:59.897Z,14.60
2022-11-04T05:53:12.420Z,13.33
2022-11-04T05:56:25.080Z,14.63
2022-11-04T05:59:37.204Z,14.10
2022-11-04T06:02:49.532Z,14.63
2022-11-04T06:06:01.999Z,23.65
2022-11-04T06:09:14.914Z,15.90
2022-11-04T06:12:27.139Z,12.68
2022-11-04T06:15:39.439Z,12.93
2022-11-04T06:18:51.823Z,14.00
2022-11-04T06:22:04.443Z,13.48
2022-11-04T06:25:17.817Z,25.43
2022-11-04T06:28:30.199Z,42.23
2022-11-04T06:31:42.391Z,18.65
2022-11-04T06:34:54.719Z,15.50
2022-11-04T06:38:07.164Z,14.60
2022-11-04T06:41:22.510Z,14.30
2022-11-04T06:44:36.089Z,17.85
2022-11-04T06:47:48.435Z,48.30
2022-11-04T06:51:01.489Z,24.83
2022-11-04T06:54:13.788Z,15.08
2022-11-04T06:57:25.989Z,14.30
2022-11-04T07:00:38.707Z,16.95
2022-11-04T07:03:52.819Z,15.93
2022-11-04T07:07:05.137Z,15.30
2022-11-04T07:10:17.952Z,14.60
2022-11-04T07:13:30.378Z,14.68
2022-11-04T07:16:43.114Z,14.08
2022-11-04T07:19:55.641Z,15.15
2022-11-04T07:23:08.524Z,13.70
2022-11-04T07:26:21.653Z,14.63
2022-11-04T07:29:34.111Z,13.95
2022-11-04T07:32:46.437Z,14.30
2022-11-04T07:35:59.288Z,13.40
2022-11-04T07:39:12.537Z,13.45
2022-11-04T07:42:25.030Z,13.48
2022-11-04T07:45:39.507Z,19.30
2022-11-04T07:48:52.314Z,16.23
2022-11-04T07:52:04.716Z,13.55
2022-11-04T07:55:18.726Z,13.50
2022-11-04T07:58:32.613Z,11.88
2022-11-04T08:01:45.291Z,12.98
2022-11-04T08:04:57.812Z,13.45
2022-11-04T08:08:10.766Z,16.03
2022-11-04T08:11:28.441Z,22.53
2022-11-04T08:14:40.822Z,14.88
2022-11-04T08:17:53.184Z,12.53
2022-11-04T08:21:07.045Z,11.23
2022-11-04T08:24:19.991Z,10.65
2022-11-04T08:27:32.367Z,11.08
2022-11-04T08:30:44.955Z,10.70
2022-11-04T08:33:58.799Z,9.75
2022-11-04T08:37:11.133Z,124.33
2022-11-04T08:40:24.729Z,28.63
2022-11-04T08:43:37.412Z,11.80
2022-11-04T08:46:51.420Z,9.78
2022-11-04T08:50:03.861Z,9.05
2022-11-04T08:53:16.221Z,8.63
2022-11-04T08:56:31.081Z,9.73
2022-11-04T08:59:44.175Z,8.45
2022-11-04T09:02:56.696Z,7.98
2022-11-04T09:06:09.485Z,49.75
2022-11-04T09:09:23.427Z,38.80
2022-11-04T09:12:35.793Z,11.53
2022-11-04T09:15:49.110Z,8.15
2022-11-04T09:19:02.088Z,7.45
2022-11-04T09:22:14.444Z,7.30
2022-11-04T09:25:27.045Z,6.88
2022-11-04T09:28:40.517Z,6.88
2022-11-04T09:31:53.136Z,8.65
2022-11-04T09:35:05.555Z,8.88
2022-11-04T09:38:17.985Z,12.60
2022-11-04T09:41:58.273Z,7.75
2022-11-04T09:45:23.171Z,6.25
2022-11-04T09:48:38.677Z,6.65
2022-11-04T09:51:54.885Z,6.45
2022-11-04T09:55:14.539Z,6.60
2022-11-04T09:58:27.285Z,6.48
2022-11-04T10:01:46.895Z,6.65
2022-11-04T10:05:09.460Z,6.40
2022-11-04T10:08:54.971Z,8.25
2022-11-04T10:12:19.735Z,6.85
2022-11-04T10:15:51.228Z,6.05
2022-11-04T10:19:28.909Z,7.18
2022-11-04T10:25:59.198Z,6.40
2022-11-04T10:29:18.061Z,7.70
2022-11-04T10:32:34.769Z,8.75
2022-11-04T10:35:51.717Z,13.05
2022-11-04T10:42:16.389Z,9.55
2022-11-04T10:45:34.940Z,11.83
2022-11-04T10:48:55.371Z,8.70
2022-11-04T10:52:08.627Z,7.38
2022-11-04T10:55:34.232Z,7.33
2022-11-04T10:58:51.164Z,7.55
2022-11-04T11:05:29.308Z,12.80
2022-11-04T11:08:43.150Z,9.88
2022-11-04T11:11:58.134Z,7.08
2022-11-04T11:15:23.979Z,7.10
2022-11-04T11:18:37.227Z,7.25
2022-11-04T11:21:53.531Z,6.75
2022-11-04T11:25:36.216Z,7.10
2022-11-04T11:28:59.035Z,7.55
2022-11-04T11:32:11.720Z,8.18
2022-11-04T11:35:28.340Z,15.48
2022-11-04T11:38:42.343Z,8.23
2022-11-04T11:42:04.064Z,8.33
2022-11-04T11:45:26.024Z,7.83
2022-11-04T11:48:45.663Z,15.98
2022-11-04T11:51:57.895Z,14.70
2022-11-04T11:55:16.700Z,11.68
2022-11-04T12:01:56.229Z,9.83
2022-11-04T12:12:47.040Z,7.45
2022-11-04T12:16:23.733Z,7.00
2022-11-04T12:19:57.506Z,7.28
2022-11-04T12:23:17.727Z,7.10
2022-11-04T12:26:40.536Z,6.30
2022-11-04T12:30:08.706Z,5.98
2022-11-04T12:33:30.848Z,6.15
2022-11-04T12:37:01.788Z,7.08
2022-11-04T12:40:26.896Z,6.53
2022-11-04T12:43:45.451Z,6.30
2022-11-04T12:47:05.132Z,7.75
2022-11-04T12:50:45.365Z,7.08
2022-11-04T12:54:09.257Z,6.78
2022-11-04T12:57:30.403Z,6.40
2022-11-04T13:00:46.201Z,6.00
2022-11-04T13:04:06.093Z,6.05
2022-11-04T13:07:24.158Z,6.68
2022-11-04T13:10:44.580Z,6.10
2022-11-04T13:14:03.340Z,5.90
2022-11-04T13:17:20.746Z,6.43
2022-11-04T13:20:42.914Z,6.00
2022-11-04T13:24:01.840Z,5.63
2022-11-04T13:27:24.559Z,5.70
2022-11-04T13:30:44.454Z,5.55
2022-11-04T13:34:02.248Z,5.83
2022-11-04T13:37:24.804Z,5.63
2022-11-04T13:40:45.641Z,5.90
2022-11-04T13:44:02.637Z,6.25
2022-11-04T13:50:43.684Z,6.38
2022-11-04T13:54:00.146Z,6.15
2022-11-04T13:57:20.895Z,6.40
2022-11-04T14:00:35.762Z,6.78
2022-11-04T14:04:02.334Z,7.65
2022-11-04T14:07:18.059Z,6.70
2022-11-04T14:10:49.385Z,6.88
2022-11-04T14:14:25.542Z,6.40
2022-11-04T14:18:13.093Z,7.08
2022-11-04T14:21:29.368Z,7.00
2022-11-04T14:24:41.929Z,7.30
2022-11-04T14:27:57.052Z,38.73
2022-11-04T14:31:17.465Z,86.23
2022-11-04T14:34:37.682Z,37.60
2022-11-04T14:37:55.492Z,13.13
2022-11-04T14:41:36.285Z,11.73
2022-11-04T14:44:52.959Z,8.23
2022-11-04T14:48:15.987Z,8.55
2022-11-04T14:51:34.492Z,8.28
2022-11-04T14:54:47.332Z,8.98
2022-11-04T14:58:04.155Z,10.03
2022-11-04T15:01:16.824Z,9.43
2022-11-04T15:04:33.942Z,10.10
2022-11-04T15:07:46.924Z,9.18
2022-11-04T15:11:06.222Z,12.90
2022-11-04T15:14:29.759Z,10.15
2022-11-04T15:17:42.608Z,9.10
2022-11-04T15:20:58.885Z,9.53
2022-11-04T15:24:14.856Z,8.87
2022-11-04T15:27:34.418Z,15.60
2022-11-04T15:30:46.891Z,9.98
2022-11-04T15:34:02.360Z,9.25
2022-11-04T15:37:18.184Z,9.60
2022-11-04T15:40:34.213Z,9.05
2022-11-04T15:43:47.007Z,11.63
2022-11-04T15:47:07.004Z,10.60
2022-11-04T15:50:29.969Z,10.58
2022-11-04T15:53:54.621Z,11.38
2022-11-04T15:57:12.665Z,11.55
2022-11-04T16:00:34.237Z,10.53
2022-11-04T16:03:46.821Z,10.20
2022-11-04T16:07:28.327Z,12.08
2022-11-04T16:10:42.397Z,10.35
2022-11-04T16:13:54.742Z,11.13
2022-11-04T16:17:07.203Z,10.65
2022-11-04T16:20:26.701Z,12.60
2022-11-04T16:23:42.566Z,11.43
2022-11-04T16:26:55.811Z,12.90
2022-11-04T16:30:21.227Z,11.73
2022-11-04T16:33:35.172Z,12.75
2022-11-04T16:36:47.701Z,12.38
2022-11-04T16:40:00.220Z,12.85
2022-11-04T16:43:14.770Z,14.25
2022-11-04T16:46:28.081Z,13.08
2022-11-04T16:49:40.594Z,14.18
2022-11-04T16:52:53.949Z,15.03
2022-11-04T16:56:07.499Z,15.33
2022-11-04T16:59:20.498Z,15.10
2022-11-04T17:02:37.795Z,16.08
2022-11-04T17:05:50.453Z,20.15
2022-11-04T17:09:03.522Z,21.65
2022-11-04T17:12:16.183Z,21.83
2022-11-04T17:15:28.708Z,22.23
2022-11-04T17:18:42.741Z,23.45
2022-11-04T17:21:55.476Z,33.30
2022-11-04T17:25:08.352Z,30.90
2022-11-04T17:28:21.061Z,31.20
2022-11-04T17:31:33.532Z,32.15
2022-11-04T17:34:46.013Z,53.78
2022-11-04T17:38:00.976Z,37.85
2022-11-04T17:41:27.705Z,34.25
2022-11-04T17:44:40.256Z,38.50
2022-11-04T17:47:52.644Z,36.50
2022-11-04T17:51:05.184Z,34.38
2022-11-04T17:54:19.107Z,34.90
2022-11-04T17:57:31.675Z,35.75
2022-11-04T18:00:44.222Z,34.13
2022-11-04T18:03:59.406Z,34.43
2022-11-04T18:07:11.729Z,33.00
2022-11-04T18:10:24.425Z,34.48
2022-11-04T18:13:37.566Z,32.80
2022-11-04T18:16:51.453Z,34.40
2022-11-04T18:20:05.460Z,42.55
2022-11-04T18:23:18.512Z,34.78
2022-11-04T18:26:31.669Z,32.98
2022-11-04T18:29:44.554Z,34.00
2022-11-04T18:32:57.303Z,35.60
2022-11-04T18:36:13.200Z,33.80
2022-11-04T18:39:26.456Z,42.68
2022-11-04T18:42:38.814Z,32.20
2022-11-04T18:45:53.429Z,32.33
2022-11-04T18:49:05.929Z,32.68
2022-11-04T18:52:18.277Z,33.23
2022-11-04T18:55:30.982Z,33.83
2022-11-04T18:58:45.155Z,33.88
2022-11-04T19:01:57.685Z,32.50
2022-11-04T19:05:11.140Z,32.63
2022-11-04T19:08:23.737Z,30.15
2022-11-04T19:11:40.047Z,29.60
2022-11-04T19:14:52.597Z,31.30
2022-11-04T19:18:05.081Z,29.10
2022-11-04T19:21:19.413Z,31.03
2022-11-04T19:24:32.568Z,29.38
2022-11-04T19:27:45.041Z,28.33
2022-11-04T19:31:06.806Z,28.80
2022-11-04T19:34:19.136Z,26.45
2022-11-04T19:37:33.086Z,29.08
2022-11-04T19:40:50.877Z,29.08
2022-11-04T19:44:00.365Z,30.83
2022-11-04T19:47:13.862Z,32.45
2022-11-04T19:50:27.004Z,30.53
2022-11-04T19:53:42.145Z,29.58
2022-11-04T19:56:54.532Z,33.35
2022-11-04T20:00:06.825Z,33.70
2022-11-04T20:03:21.555Z,32.53
2022-11-04T20:06:34.196Z,30.10
2022-11-04T20:09:46.552Z,30.70
2022-11-04T20:13:13.578Z,31.98
2022-11-04T20:16:31.828Z,31.63
2022-11-04T20:19:45.501Z,31.68
2022-11-04T20:22:58.024Z,31.53
2022-11-04T20:26:20.624Z,32.20
2022-11-04T20:29:33.652Z,32.05
2022-11-04T20:32:45.970Z,31.43
2022-11-04T20:35:58.471Z,30.30
2022-11-04T20:39:14.863Z,33.00
2022-11-04T20:42:27.375Z,34.10
2022-11-04T20:45:39.849Z,35.60
2022-11-04T20:48:52.482Z,34.35
2022-11-04T20:52:04.979Z,34.78
2022-11-04T20:55:18.761Z,33.80
2022-11-04T20:58:30.992Z,33.23
2022-11-04T21:01:47.668Z,36.18
2022-11-04T21:05:00.628Z,40.18
2022-11-04T21:08:13.387Z,35.73
2022-11-04T21:11:31.701Z,35.33
2022-11-04T21:14:42.561Z,35.28
2022-11-04T21:17:54.890Z,33.60
2022-11-04T21:21:12.198Z,34.53
2022-11-04T21:24:24.682Z,35.18
2022-11-04T21:27:36.976Z,35.30
2022-11-04T21:30:53.246Z,35.20
2022-11-04T21:34:06.277Z,32.08
2022-11-04T21:37:18.646Z,34.83
2022-11-04T21:40:30.892Z,34.25
2022-11-04T21:43:43.686Z,32.50
2022-11-04T21:46:57.679Z,32.85
2022-11-04T21:50:16.728Z,31.23
2022-11-04T21:53:25.699Z,31.18
2022-11-04T21:56:39.053Z,31.55
2022-11-04T21:59:51.558Z,32.20
2022-11-04T22:03:03.787Z,31.40
2022-11-04T22:06:18.484Z,32.60
2022-11-04T22:09:30.960Z,30.75
2022-11-04T22:12:45.841Z,30.78
2022-11-04T22:16:06.271Z,32.38
2022-11-04T22:19:19.453Z,31.15
2022-11-04T22:22:31.938Z,31.80
2022-11-04T22:25:49.764Z,31.03
2022-11-04T22:28:59.990Z,30.35
2022-11-04T22:32:12.401Z,29.60
2022-11-04T22:35:25.417Z,30.80
2022-11-04T22:38:39.342Z,29.98
2022-11-04T22:41:51.817Z,30.30
2022-11-04T22:45:05.415Z,31.08
2022-11-04T22:48:17.926Z,30.13
2022-11-04T22:51:31.561Z,31.03
2022-11-04T22:54:44.092Z,32.18
2022-11-04T22:57:56.700Z,31.20
2022-11-04T23:01:12.329Z,30.55
2022-11-04T23:04:24.787Z,31.50
2022-11-04T23:07:36.999Z,31.75
2022-11-04T23:10:59.797Z,29.65
2022-11-04T23:14:24.227Z,32.00
2022-11-04T23:17:50.591Z,31.60
2022-11-04T23:21:17.139Z,31.08
2022-11-04T23:24:43.712Z,32.57
2022-11-04T23:28:13.408Z,29.33
2022-11-04T23:31:25.664Z,33.03
2022-11-04T23:34:52.381Z,32.55
2022-11-04T23:38:06.360Z,33.87
2022-11-04T23:41:32.529Z,30.90
2022-11-04T23:44:58.949Z,32.88
2022-11-04T23:48:27.447Z,31.43
2022-11-04T23:51:54.105Z,34.20
2022-11-04T23:55:20.811Z,33.28
2022-11-04T23:58:47.359Z,31.83
